.
WxDataArchive / Data Records for 2006-09-24
2006-09-23 September 2006 2006-09-25

Data Records for Sunday, 24 September 2006

Time	Temp	Chill	HIndex	Humid	Dewpt	 Wind 	HiWind	WindDir	Rain 	Barom 
-----	----	-----	------	-----	-----	------	------	-------	-----	----- 
00:00	60.4	60.4	60.4	93	58.4	0	0	---	0.00	29.600 
00:05	60.2	60.2	60.2	93	58.2	0	1	315	0.00	29.600 
00:10	60.1	60.1	60.1	93	58.1	0	0	---	0.00	29.600 
00:15	60.1	60.1	60.1	94	58.4	0	0	---	0.00	29.590 
00:20	60.1	60.1	60.1	94	58.4	0	0	---	0.00	29.590 
00:25	59.9	59.9	59.9	94	58.2	0	0	---	0.00	29.590 
00:30	59.9	59.9	59.9	94	58.2	0	1	315	0.00	29.598 
00:35	59.8	59.8	59.8	94	58.1	0	1	315	0.00	29.598 
00:40	59.6	59.6	59.6	94	57.9	0	1	315	0.00	29.598 
00:45	59.5	59.5	59.5	94	57.8	0	1	315	0.00	29.607 
00:50	59.3	59.3	59.3	94	57.6	0	1	315	0.00	29.607 
00:55	59.3	59.3	59.3	95	57.9	0	1	315	0.00	29.607 
01:00	59.3	59.3	59.3	95	57.9	0	1	315	0.00	29.605 
01:05	59.3	59.3	59.3	95	57.9	0	2	315	0.00	29.605 
01:10	59.3	59.3	59.3	95	57.9	0	2	315	0.00	29.605 
01:15	59.3	59.3	59.3	95	57.9	0	1	270	0.00	29.606 
01:20	59.5	59.5	59.5	96	58.4	0	1	270	0.00	29.606 
01:25	59.5	59.5	59.5	96	58.4	0	2	270	0.00	29.606 
01:30	59.5	59.5	59.5	96	58.4	0	2	270	0.00	29.609 
01:35	59.5	59.5	59.5	96	58.4	1	2	270	0.00	29.609 
01:40	59.5	59.5	59.5	96	58.4	1	3	270	0.00	29.609 
01:45	59.5	59.5	59.5	96	58.4	1	2	248	0.00	29.611 
01:50	59.5	59.5	59.5	96	58.4	1	2	248	0.00	29.611 
01:55	59.5	59.5	59.5	96	58.4	1	2	248	0.00	29.611 
02:00	59.5	59.5	59.5	95	58.1	0	2	248	0.00	29.608 
02:05	59.3	59.3	59.3	95	57.9	1	2	248	0.00	29.608 
02:10	59.3	59.3	59.3	95	57.9	1	3	248	0.00	29.608 
02:15	59.2	59.2	59.2	95	57.8	1	3	248	0.00	29.613 
02:20	59.2	59.2	59.2	94	57.5	1	2	248	0.00	29.613 
02:25	59.0	59.0	59.0	94	57.3	1	2	248	0.00	29.613 
02:30	59.0	59.0	59.0	94	57.3	1	2	248	0.00	29.620 
02:35	58.9	58.9	58.9	94	57.2	0	3	270	0.00	29.620 
02:40	58.9	58.9	58.9	94	57.2	1	2	248	0.00	29.620 
02:45	58.7	58.7	58.7	94	57.0	1	3	248	0.00	29.617 
02:50	58.7	58.7	58.7	94	57.0	1	2	248	0.00	29.617 
02:55	58.7	58.7	58.7	94	57.0	1	3	248	0.00	29.617 
03:00	58.7	58.7	58.7	94	57.0	1	5	248	0.00	29.621 
03:05	58.7	58.7	58.7	94	57.0	1	3	248	0.00	29.621 
03:10	58.6	58.6	58.6	94	56.9	1	3	248	0.00	29.621 
03:15	58.6	58.6	58.6	94	56.9	1	4	248	0.00	29.622 
03:20	58.6	58.6	58.6	94	56.9	1	3	248	0.00	29.622 
03:25	58.4	58.4	58.4	94	56.7	1	2	248	0.00	29.622 
03:30	58.3	58.3	58.3	94	56.6	1	2	248	0.00	29.614 
03:35	58.3	58.3	58.3	94	56.6	0	2	248	0.00	29.614 
03:40	58.1	58.1	58.1	94	56.4	1	3	248	0.00	29.614 
03:45	58.1	58.1	58.1	94	56.4	1	2	248	0.00	29.618 
03:50	58.1	58.1	58.1	94	56.4	1	4	248	0.00	29.618 
03:55	58.1	58.1	58.1	94	56.4	1	3	225	0.00	29.618 
04:00	58.0	58.0	58.0	94	56.3	1	2	248	0.00	29.619 
04:05	58.0	58.0	58.0	94	56.3	1	3	248	0.00	29.619 
04:10	58.0	58.0	58.0	94	56.3	1	3	248	0.00	29.619 
04:15	58.0	58.0	58.0	93	56.0	1	2	270	0.00	29.626 
04:20	57.8	57.8	57.8	93	55.8	1	3	248	0.00	29.626 
04:25	57.8	57.8	57.8	93	55.8	1	2	248	0.00	29.626 
04:30	57.8	57.8	57.8	93	55.8	1	3	248	0.00	29.630 
04:35	57.6	57.6	57.6	92	55.3	0	2	248	0.00	29.630 
04:40	57.6	57.6	57.6	93	55.6	1	2	248	0.00	29.630 
04:45	57.5	57.5	57.5	93	55.5	1	2	248	0.00	29.636 
04:50	57.6	57.6	57.6	92	55.3	1	4	248	0.00	29.636 
04:55	57.6	57.6	57.6	92	55.3	1	3	270	0.00	29.636 
05:00	57.6	57.6	57.6	92	55.3	1	3	248	0.00	29.639 
05:05	57.6	57.6	57.6	92	55.3	1	4	248	0.00	29.639 
05:10	57.6	57.6	57.6	91	55.0	2	5	248	0.00	29.639 
05:15	57.5	57.5	57.5	90	54.6	1	4	248	0.00	29.637 
05:20	57.5	57.5	57.5	90	54.6	2	4	248	0.00	29.637 
05:25	57.5	57.5	57.5	90	54.6	1	5	248	0.00	29.637 
05:30	57.3	57.3	57.3	90	54.4	2	4	248	0.00	29.641 
05:35	57.3	57.3	57.3	89	54.1	2	5	248	0.00	29.641 
05:40	57.3	57.3	57.3	89	54.1	2	4	248	0.00	29.641 
05:45	57.2	57.2	57.2	89	54.0	1	3	248	0.00	29.642 
05:50	57.0	57.0	57.0	89	53.8	1	3	248	0.00	29.642 
05:55	56.9	56.9	56.9	89	53.7	1	3	248	0.00	29.642 
06:00	56.7	56.7	56.7	89	53.5	1	4	248	0.00	29.646 
06:05	56.6	56.6	56.6	89	53.4	1	4	248	0.00	29.646 
06:10	56.6	56.6	56.6	89	53.4	1	4	248	0.00	29.646 
06:15	56.5	56.5	56.5	89	53.3	2	4	248	0.00	29.652 
06:20	56.5	56.5	56.5	88	53.0	1	4	248	0.00	29.652 
06:25	56.3	56.3	56.3	88	52.8	1	4	248	0.00	29.652 
06:30	56.3	56.3	56.3	88	52.8	1	4	248	0.00	29.659 
06:35	56.2	56.2	56.2	88	52.7	2	4	248	0.00	29.659 
06:40	56.2	56.2	56.2	88	52.7	2	5	248	0.00	29.659 
06:45	56.0	56.0	56.0	89	52.8	1	4	248	0.00	29.661 
06:50	56.0	56.0	56.0	89	52.8	1	3	248	0.00	29.661 
06:55	55.9	55.9	55.9	89	52.7	1	4	270	0.00	29.661 
07:00	55.9	55.9	55.9	89	52.7	2	4	248	0.00	29.664 
07:05	55.9	55.9	55.9	89	52.7	1	3	248	0.00	29.664 
07:10	55.9	55.9	55.9	89	52.7	1	4	248	0.00	29.664 
07:15	55.7	55.7	55.7	89	52.5	2	5	248	0.00	29.669 
07:20	55.7	55.7	55.7	89	52.5	2	4	248	0.00	29.669 
07:25	55.7	55.7	55.7	89	52.5	1	4	248	0.00	29.669 
07:30	55.6	55.6	55.6	89	52.4	1	4	270	0.00	29.675 
07:35	55.6	55.6	55.6	89	52.4	2	4	248	0.00	29.675 
07:40	55.6	55.6	55.6	89	52.4	2	5	248	0.00	29.675 
07:45	55.6	55.6	55.6	89	52.4	1	4	248	0.00	29.682 
07:50	55.6	55.6	55.6	89	52.4	2	5	248	0.00	29.682 
07:55	55.6	55.6	55.6	89	52.4	1	4	248	0.00	29.682 
08:00	55.7	55.7	55.7	89	52.5	1	4	248	0.00	29.691 
08:05	55.9	55.9	55.9	89	52.7	2	5	248	0.00	29.691 
08:10	56.0	56.0	56.0	88	52.5	2	5	248	0.00	29.691 
08:15	56.0	56.0	56.0	88	52.5	2	6	248	0.00	29.691 
08:20	56.2	56.2	56.2	87	52.4	2	6	248	0.00	29.691 
08:25	56.3	56.3	56.3	87	52.5	2	7	248	0.00	29.691 
08:30	56.5	56.5	56.5	86	52.4	2	5	248	0.00	29.695 
08:35	56.5	56.5	56.5	86	52.4	2	4	270	0.00	29.695 
08:40	56.6	56.6	56.6	86	52.5	3	6	248	0.00	29.695 
08:45	56.9	56.9	56.9	86	52.8	2	5	248	0.00	29.703 
08:50	56.7	56.7	56.7	85	52.2	2	6	270	0.00	29.703 
08:55	56.7	56.7	56.7	85	52.2	2	4	292	0.00	29.703 
09:00	56.9	56.9	56.9	85	52.4	2	7	270	0.00	29.707 
09:05	57.0	57.0	57.0	85	52.5	3	6	270	0.00	29.707 
09:10	57.2	57.2	57.2	85	52.7	2	6	270	0.00	29.707 
09:15	57.5	57.5	57.5	85	53.0	2	5	248	0.00	29.711 
09:20	57.6	57.6	57.6	84	52.8	3	6	270	0.00	29.711 
09:25	57.6	57.6	57.6	83	52.5	3	6	270	0.00	29.711 
09:30	57.6	57.6	57.6	83	52.5	3	5	270	0.00	29.721 
09:35	58.0	58.0	58.0	84	53.2	1	4	270	0.00	29.721 
09:40	58.0	58.0	58.0	82	52.5	4	10	270	0.00	29.721 
09:45	58.6	58.6	58.6	83	53.4	2	6	270	0.00	29.721 
09:50	58.9	58.9	58.9	81	53.1	2	4	270	0.00	29.721 
09:55	58.7	58.7	58.7	81	52.9	2	5	270	0.00	29.721 
10:00	58.7	58.7	58.7	81	52.9	2	5	270	0.00	29.722 
10:05	58.7	58.7	58.7	82	53.2	2	5	248	0.00	29.722 
10:10	58.7	58.7	58.7	81	52.9	3	6	270	0.00	29.722 
10:15	58.9	58.9	58.9	81	53.1	3	6	248	0.00	29.731 
10:20	58.9	58.9	58.9	81	53.1	3	6	270	0.00	29.731 
10:25	59.3	59.3	59.3	80	53.1	3	5	270	0.00	29.731 
10:30	59.6	59.6	59.6	77	52.4	3	6	270	0.00	29.735 
10:35	59.6	59.6	59.6	78	52.7	4	7	270	0.00	29.735 
10:40	59.8	59.8	59.8	77	52.6	3	7	270	0.00	29.735 
10:45	59.9	59.9	59.9	79	53.4	3	6	270	0.00	29.735 
10:50	60.5	60.5	60.5	77	53.2	3	6	270	0.00	29.735 
10:55	61.2	61.2	61.2	77	53.9	2	5	270	0.00	29.735 
11:00	61.5	61.5	61.5	76	53.9	3	6	270	0.00	29.734 
11:05	61.8	61.8	61.8	73	53.0	3	7	270	0.00	29.734 
11:10	62.0	62.0	62.0	73	53.2	3	6	270	0.00	29.734 
11:15	62.3	62.3	62.3	74	53.9	4	8	270	0.00	29.747 
11:20	62.1	62.1	62.1	72	53.0	3	6	270	0.00	29.747 
11:25	61.8	61.8	61.8	73	53.0	2	5	270	0.00	29.747 
11:30	61.3	61.3	61.3	74	52.9	2	5	270	0.00	29.749 
11:35	61.2	61.2	61.2	75	53.2	2	4	248	0.00	29.749 
11:40	61.2	61.2	61.2	75	53.2	2	5	270	0.00	29.749 
11:45	61.3	61.3	61.3	74	52.9	3	6	248	0.00	29.756 
11:50	61.3	61.3	61.3	74	52.9	3	6	270	0.00	29.756 
11:55	61.5	61.5	61.5	74	53.1	2	4	270	0.00	29.756 
12:00	61.5	61.5	61.5	75	53.5	2	4	248	0.00	29.756 
12:05	61.8	61.8	61.8	74	53.4	2	4	248	0.00	29.756 
12:10	61.5	61.5	61.5	73	52.8	3	5	270	0.00	29.756 
12:15	61.2	61.2	61.2	74	52.8	3	7	248	0.00	29.759 
12:20	60.9	60.9	60.9	75	52.9	2	4	270	0.00	29.759 
12:25	60.9	60.9	60.9	75	52.9	2	5	248	0.00	29.759 
12:30	60.7	60.7	60.7	75	52.7	2	5	270	0.00	29.762 
12:35	61.0	61.0	61.0	74	52.6	3	6	270	0.00	29.762 
12:40	61.5	61.5	61.5	74	53.1	2	3	248	0.00	29.762 
12:45	61.8	61.8	61.8	72	52.7	2	6	270	0.00	29.760 
12:50	61.8	61.8	61.8	71	52.3	2	5	248	0.00	29.760 
12:55	61.8	61.8	61.8	73	53.0	2	5	248	0.00	29.760 
13:00	61.8	61.8	61.8	72	52.7	2	4	248	0.00	29.762 
13:05	62.0	62.0	62.0	73	53.2	1	3	248	0.00	29.762 
13:10	62.1	62.1	62.1	71	52.6	2	5	248	0.00	29.762 
13:15	62.4	62.4	62.4	72	53.2	2	4	270	0.00	29.756 
13:20	63.2	63.2	63.2	70	53.2	3	5	270	0.00	29.756 
13:25	63.7	63.7	63.7	69	53.3	3	5	248	0.00	29.756 
13:30	64.0	64.0	64.0	69	53.6	3	6	292	0.00	29.757 
13:35	63.9	63.9	63.9	69	53.5	3	6	270	0.00	29.757 
13:40	64.0	64.0	64.0	69	53.6	2	6	248	0.00	29.757 
13:45	64.2	64.2	64.2	69	53.8	2	5	270	0.00	29.755 
13:50	64.5	64.5	64.5	67	53.3	2	4	270	0.00	29.755 
13:55	64.0	64.0	64.0	65	52.0	2	8	270	0.00	29.755 
14:00	63.4	63.4	63.4	68	52.6	3	5	270	0.00	29.756 
14:05	63.2	63.2	63.2	68	52.5	2	5	248	0.00	29.756 
14:10	63.2	63.2	63.2	69	52.9	2	5	248	0.00	29.756 
14:15	63.4	63.4	63.4	69	53.0	2	4	270	0.00	29.756 
14:20	63.2	63.2	63.2	69	52.9	1	5	315	0.00	29.756 
14:25	62.7	62.7	62.7	70	52.8	2	4	270	0.00	29.756 
14:30	62.4	62.4	62.4	71	52.9	2	4	270	0.00	29.763 
14:35	61.5	61.5	61.5	78	54.6	1	3	315	0.00	29.763 
14:40	60.7	60.7	60.7	81	54.8	0	1	338	0.00	29.763 
14:45	60.2	60.2	60.2	84	55.3	0	3	270	0.00	29.769 
14:50	59.9	59.9	59.9	86	55.7	0	1	270	0.00	29.769 
14:55	59.5	59.5	59.5	87	55.6	0	2	315	0.00	29.769 
15:00	59.0	59.0	59.0	89	55.8	0	2	315	0.01	29.775 
15:05	58.6	58.6	58.6	90	55.7	1	2	315	0.00	29.775 
15:10	58.4	58.4	58.4	90	55.5	1	4	315	0.00	29.775 
15:15	58.4	58.4	58.4	91	55.8	1	5	338	0.01	29.779 
15:20	58.3	58.3	58.3	91	55.7	1	4	315	0.00	29.779 
15:25	58.3	58.3	58.3	90	55.4	1	3	292	0.00	29.779 
15:30	58.3	58.3	58.3	90	55.4	1	2	292	0.00	29.780 
15:35	58.4	58.4	58.4	90	55.5	1	3	248	0.00	29.780 
15:40	58.4	58.4	58.4	90	55.5	1	3	248	0.00	29.780 
15:45	58.4	58.4	58.4	90	55.5	1	2	315	0.00	29.784 
15:50	58.7	58.7	58.7	89	55.5	1	3	315	0.00	29.784 
15:55	58.9	58.9	58.9	88	55.3	2	5	292	0.00	29.784 
16:00	59.0	59.0	59.0	89	55.8	1	3	270	0.00	29.792 
16:05	58.9	58.9	58.9	89	55.7	2	4	270	0.00	29.792 
16:10	58.9	58.9	58.9	90	56.0	1	3	270	0.00	29.792 
16:15	58.7	58.7	58.7	89	55.5	1	3	270	0.00	29.791 
16:20	58.9	58.9	58.9	90	56.0	1	3	270	0.00	29.791 
16:25	59.2	59.2	59.2	90	56.3	1	3	270	0.00	29.791 
16:30	59.3	59.3	59.3	89	56.1	1	4	270	0.00	29.792 
16:35	59.6	59.6	59.6	90	56.7	1	3	270	0.00	29.792 
16:40	59.9	59.9	59.9	89	56.6	1	3	248	0.00	29.792 
16:45	59.9	59.9	59.9	88	56.3	2	3	270	0.00	29.793 
16:50	59.9	59.9	59.9	88	56.3	1	4	270	0.00	29.793 
16:55	59.9	59.9	59.9	88	56.3	0	2	292	0.00	29.793 
17:00	59.9	59.9	59.9	88	56.3	1	3	270	0.00	29.796 
17:05	59.9	59.9	59.9	85	55.4	1	3	292	0.00	29.796 
17:10	60.2	60.2	60.2	84	55.3	0	2	292	0.00	29.796 
17:15	60.4	60.4	60.4	81	54.5	2	4	270	0.00	29.800 
17:20	60.5	60.5	60.5	80	54.3	1	3	315	0.00	29.800 
17:25	60.7	60.7	60.7	77	53.4	2	4	315	0.00	29.800 
17:30	61.0	61.0	61.0	78	54.1	1	3	270	0.00	29.804 
17:35	60.9	60.9	60.9	76	53.3	2	3	270	0.00	29.804 
17:40	60.5	60.5	60.5	76	52.9	2	4	315	0.00	29.804 
17:45	60.7	60.7	60.7	77	53.4	1	3	292	0.00	29.807 
17:50	60.7	60.7	60.7	77	53.4	1	3	270	0.00	29.807 
17:55	60.5	60.5	60.5	77	53.2	1	3	270	0.00	29.807 
18:00	60.7	60.7	60.7	78	53.8	1	2	248	0.00	29.818 
18:05	60.5	60.5	60.5	77	53.2	1	3	315	0.00	29.818 
18:10	60.5	60.5	60.5	72	51.4	2	5	270	0.00	29.818 
18:15	60.5	60.5	60.5	73	51.8	1	4	292	0.00	29.825 
18:20	60.4	60.4	60.4	71	50.9	1	3	315	0.00	29.825 
18:25	59.9	59.9	59.9	71	50.5	1	3	315	0.00	29.825 
18:30	59.6	59.6	59.6	72	50.6	1	4	315	0.00	29.837 
18:35	59.5	59.5	59.5	72	50.5	1	4	315	0.00	29.837 
18:40	59.5	59.5	59.5	73	50.8	1	4	315	0.00	29.837 
18:45	59.6	59.6	59.6	72	50.6	0	2	315	0.00	29.840 
18:50	59.5	59.5	59.5	73	50.8	1	3	292	0.00	29.840 
18:55	59.3	59.3	59.3	74	51.0	0	2	292	0.00	29.840 
19:00	59.2	59.2	59.2	73	50.5	1	3	315	0.00	29.844 
19:05	59.0	59.0	59.0	73	50.4	1	2	292	0.00	29.844 
19:10	58.9	58.9	58.9	74	50.6	0	2	292	0.00	29.844 
19:15	58.4	58.4	58.4	75	50.5	0	1	292	0.00	29.852 
19:20	58.3	58.3	58.3	75	50.4	0	1	292	0.00	29.852 
19:25	58.0	58.0	58.0	74	49.8	1	3	315	0.00	29.852 
19:30	57.8	57.8	57.8	74	49.6	0	3	315	0.00	29.858 
19:35	57.5	57.5	57.5	73	48.9	1	3	315	0.00	29.858 
19:40	57.2	57.2	57.2	72	48.3	1	2	270	0.00	29.858 
19:45	57.0	57.0	57.0	73	48.4	0	2	292	0.00	29.873 
19:50	56.7	56.7	56.7	74	48.5	0	1	315	0.00	29.873 
19:55	56.5	56.5	56.5	75	48.7	0	2	315	0.00	29.873 
20:00	56.2	56.2	56.2	75	48.4	0	3	315	0.00	29.877 
20:05	55.9	55.9	55.9	74	47.7	1	3	315	0.00	29.877 
20:10	55.7	55.7	55.7	74	47.5	1	2	315	0.00	29.877 
20:15	55.6	55.6	55.6	74	47.4	0	3	315	0.00	29.886 
20:20	55.3	55.3	55.3	75	47.5	0	1	315	0.00	29.886 
20:25	54.8	54.8	54.8	75	47.0	0	1	315	0.00	29.886 
20:30	54.7	54.7	54.7	75	46.9	0	1	315	0.00	29.894 
20:35	54.4	54.4	54.4	75	46.6	0	2	315	0.00	29.894 
20:40	54.2	54.2	54.2	75	46.4	0	2	292	0.00	29.894 
20:45	54.1	54.1	54.1	75	46.4	0	1	315	0.00	29.904 
20:50	53.8	53.8	53.8	75	46.1	0	1	315	0.00	29.904 
20:55	53.5	53.5	53.5	75	45.8	0	1	315	0.00	29.904 
21:00	53.2	53.2	53.2	75	45.5	0	0	---	0.00	29.908 
21:05	52.9	52.9	52.9	76	45.5	0	1	315	0.00	29.908 
21:10	52.8	52.8	52.8	76	45.4	0	1	315	0.00	29.908 
21:15	52.5	52.5	52.5	77	45.5	0	1	315	0.00	29.909 
21:20	52.2	52.2	52.2	77	45.2	0	2	315	0.00	29.909 
21:25	52.0	52.0	52.0	77	45.0	0	1	315	0.00	29.909 
21:30	51.9	51.9	51.9	77	44.9	0	0	---	0.00	29.918 
21:35	51.6	51.6	51.6	77	44.6	0	0	---	0.00	29.918 
21:40	51.4	51.4	51.4	78	44.8	0	0	---	0.00	29.918 
21:45	51.1	51.1	51.1	79	44.8	0	0	---	0.00	29.922 
21:50	50.8	50.8	50.8	80	44.9	0	0	---	0.00	29.922 
21:55	50.5	50.5	50.5	80	44.6	0	0	---	0.00	29.922 
22:00	50.4	50.4	50.4	81	44.8	0	0	---	0.00	29.925 
22:05	49.9	49.9	49.9	82	44.6	0	0	---	0.00	29.925 
22:10	49.6	49.6	49.6	83	44.7	0	0	---	0.00	29.925 
22:15	49.2	49.2	49.2	83	44.3	0	0	---	0.00	29.925 
22:20	48.9	48.9	48.9	84	44.3	0	0	---	0.00	29.925 
22:25	48.5	48.5	48.5	85	44.2	0	0	---	0.00	29.925 
22:30	48.2	48.2	48.2	85	43.9	0	0	---	0.00	29.925 
22:35	47.7	47.7	47.7	86	43.7	0	0	---	0.00	29.925 
22:40	47.4	47.4	47.4	88	44.0	0	0	---	0.00	29.925 
22:45	47.3	47.3	47.3	88	43.9	0	0	---	0.00	29.929 
22:50	47.0	47.0	47.0	88	43.6	0	0	---	0.00	29.929 
22:55	46.7	46.7	46.7	88	43.3	0	0	---	0.00	29.929 
23:00	46.5	46.5	46.5	88	43.1	0	0	---	0.00	29.933 
23:05	46.2	46.2	46.2	88	42.8	0	0	---	0.00	29.933 
23:10	46.1	46.1	46.1	88	42.7	0	0	---	0.00	29.933 
23:15	45.8	45.8	45.8	89	42.7	0	0	---	0.00	29.938 
23:20	45.7	45.7	45.7	89	42.6	0	0	---	0.00	29.938 
23:25	45.5	45.5	45.5	91	43.0	0	0	---	0.00	29.938 
23:30	45.4	45.4	45.4	91	42.9	0	0	---	0.00	29.939 
23:35	45.2	45.2	45.2	92	43.0	0	0	---	0.00	29.939 
23:40	45.2	45.2	45.2	92	43.0	0	0	---	0.00	29.939 
23:45	45.1	45.1	45.1	92	42.9	0	0	---	0.00	29.940 
23:50	44.9	44.9	44.9	92	42.7	0	0	---	0.00	29.940 
23:55	44.8	44.8	44.8	92	42.6	0	0	---	0.00	29.940 

CoCoRaHS
IN-AL-39
A2 Web Hosting
Creative Commons License
GoDaddy
Look for:

loaded 2017-10-16 18:21:26 • last modified 2010-11-18 10:43:29
Privacy PolicyDisclaimer
• wx.awcolley.com is powered by PmWiki v.2002016 •
• all content (unless otherwise noted) © 2017 A W Colley